Time;durP1;ratioP1;P1;durP2;ratioP2;P2;SDS_P1;SDS_P2;PMS_P1;PMS_P2;Temp;Humidity;BMP_temperature;BMP_pressure;BME280_temperature;BME280_humidity;BME280_pressure;Samples;Min_cycle;Max_cycle;Signal;HPM_P1;HPM_P2
2021/09/01 00:01:32;;;;;;;;;18.50;17.25;;;;;20.71;54.49;102218.22;5050274;28;45311;-65
2021/09/01 00:03:57;;;;;;;;;16.00;16.00;;;;;20.70;54.72;102219.16;5032699;28;45323;-65
2021/09/01 00:06:23;;;;;;;;;18.75;16.50;;;;;20.70;54.33;102218.28;5036021;28;46151;-66
2021/09/01 00:08:51;;;;;;;;;19.75;18.00;;;;;20.70;54.32;102215.56;5040897;28;46176;-66
2021/09/01 00:11:19;;;;;;;;;16.00;14.50;;;;;20.71;54.96;102212.78;5040775;28;45294;-66
2021/09/01 00:13:45;;;;;;;;;17.25;16.25;;;;;20.72;54.64;102229.94;5040242;28;45288;-66
2021/09/01 00:16:25;;;;;;;;;21.75;16.50;;;;;20.64;55.07;102218.59;5038693;28;45501;-66
2021/09/01 00:18:52;;;;;;;;;17.25;17.25;;;;;20.66;54.57;102220.25;5039819;28;45208;-66
2021/09/01 00:21:17;;;;;;;;;19.00;16.25;;;;;20.57;55.06;102211.72;5034189;28;45427;-66
2021/09/01 00:23:43;;;;;;;;;10.75;9.50;;;;;20.66;54.93;102224.81;5047281;28;45396;-66
2021/09/01 00:26:08;;;;;;;;;20.50;17.00;;;;;20.62;54.61;102224.06;5040661;28;45622;-66
2021/09/01 00:28:33;;;;;;;;;17.75;16.75;;;;;20.57;55.06;102219.84;5040319;28;46094;-66
2021/09/01 00:30:59;;;;;;;;;21.75;19.00;;;;;20.57;55.47;102226.13;5040511;28;45169;-66
2021/09/01 00:33:24;;;;;;;;;18.75;18.50;;;;;20.53;55.54;102213.66;5040577;28;45993;-66
2021/09/01 00:35:49;;;;;;;;;20.50;17.50;;;;;20.53;55.33;102220.00;5040580;28;45599;-66
2021/09/01 00:38:14;;;;;;;;;23.00;21.50;;;;;20.43;55.36;102213.28;5040128;28;45929;-66
2021/09/01 00:40:40;;;;;;;;;18.25;16.75;;;;;20.46;55.56;102223.94;5040374;28;45491;-66
2021/09/01 00:43:05;;;;;;;;;18.25;18.25;;;;;20.42;55.79;102219.66;5039834;28;45434;-66
2021/09/01 00:45:30;;;;;;;;;17.50;16.00;;;;;20.38;55.66;102212.66;5029549;28;45289;-66
2021/09/01 00:47:56;;;;;;;;;15.75;14.75;;;;;20.38;55.63;102226.19;5039768;28;45253;-66
2021/09/01 00:50:21;;;;;;;;;15.00;15.00;;;;;20.35;56.02;102220.94;5040379;28;45320;-66
2021/09/01 00:52:47;;;;;;;;;20.75;18.25;;;;;20.32;55.74;102227.38;5040055;28;45541;-66
2021/09/01 00:55:12;;;;;;;;;18.50;18.50;;;;;20.31;55.83;102228.34;5039061;28;45512;-66
2021/09/01 00:57:40;;;;;;;;;21.50;17.25;;;;;20.25;56.14;102225.94;5040031;28;46369;-66
2021/09/01 01:00:07;;;;;;;;;23.25;20.25;;;;;20.26;55.99;102230.38;5040083;28;45347;-66
2021/09/01 01:02:32;;;;;;;;;20.00;18.50;;;;;20.20;56.24;102221.66;5039111;28;45419;-66
2021/09/01 01:04:58;;;;;;;;;18.50;16.25;;;;;20.21;56.10;102232.44;5027813;28;45285;-66
2021/09/01 01:07:23;;;;;;;;;20.25;17.75;;;;;20.20;56.26;102224.38;5039830;28;45440;-66
2021/09/01 01:09:48;;;;;;;;;22.00;19.50;;;;;20.17;56.19;102229.00;5039948;28;45145;-66
2021/09/01 01:12:21;;;;;;;;;18.00;16.00;;;;;20.16;56.39;102229.06;5040151;28;45481;-66
2021/09/01 01:14:50;;;;;;;;;18.75;15.25;;;;;20.10;56.59;102221.28;5039112;28;45426;-66
2021/09/01 01:17:18;;;;;;;;;19.25;17.25;;;;;20.06;56.66;102228.66;5038722;28;45531;-66
2021/09/01 01:19:48;;;;;;;;;19.75;17.25;;;;;20.10;56.47;102232.13;5028905;28;45650;-66
2021/09/01 01:22:19;;;;;;;;;22.25;18.00;;;;;20.10;56.60;102223.97;5039683;28;45244;-65
2021/09/01 01:24:49;;;;;;;;;23.00;20.75;;;;;20.10;56.69;102232.97;5039928;28;45573;-66
2021/09/01 01:27:26;;;;;;;;;22.50;19.50;;;;;20.03;56.26;102212.56;5039690;28;46182;-66
2021/09/01 01:29:52;;;;;;;;;17.50;16.00;;;;;19.94;56.41;102205.72;5039356;28;45383;-66
2021/09/01 01:32:17;;;;;;;;;19.75;17.75;;;;;19.90;56.89;102198.72;5039879;28;45252;-66
2021/09/01 01:34:42;;;;;;;;;18.25;17.00;;;;;19.98;57.00;102211.91;5039816;28;45431;-66
2021/09/01 01:37:09;;;;;;;;;17.25;17.25;;;;;20.01;56.74;102216.28;5039168;28;45555;-66
2021/09/01 01:39:34;;;;;;;;;21.75;16.75;;;;;20.02;56.84;102212.63;5039510;28;45417;-66
2021/09/01 01:41:59;;;;;;;;;17.50;16.75;;;;;19.94;56.59;102203.03;5039379;28;45310;-65
2021/09/01 01:44:25;;;;;;;;;19.75;17.00;;;;;20.01;56.88;102211.72;5037488;28;45999;-66
2021/09/01 01:46:50;;;;;;;;;17.25;15.50;;;;;20.02;56.93;102218.06;5039272;28;45237;-66
2021/09/01 01:49:15;;;;;;;;;16.75;16.50;;;;;20.02;56.92;102220.75;5039457;28;45344;-66
2021/09/01 01:51:52;;;;;;;;;23.25;19.50;;;;;19.98;56.77;102211.91;5038476;28;45259;-66
2021/09/01 01:54:17;;;;;;;;;21.50;20.50;;;;;19.97;56.94;102213.72;5039004;28;45217;-65
2021/09/01 01:56:43;;;;;;;;;24.00;21.25;;;;;19.97;56.81;102211.00;5039507;28;45216;-65
2021/09/01 01:59:09;;;;;;;;;21.25;20.50;;;;;19.98;56.91;102214.63;5039217;28;45861;-66
2021/09/01 02:01:34;;;;;;;;;25.50;22.00;;;;;19.98;56.72;102210.06;5039702;28;45462;-66
2021/09/01 02:03:59;;;;;;;;;24.50;19.50;;;;;19.96;56.95;102202.94;5026539;28;45548;-66
2021/09/01 02:06:26;;;;;;;;;20.00;17.75;;;;;20.02;56.60;102209.94;5038546;28;45493;-66
2021/09/01 02:08:51;;;;;;;;;19.25;16.25;;;;;19.97;56.87;102202.88;5039157;28;45241;-66
2021/09/01 02:11:17;;;;;;;;;19.00;17.25;;;;;20.05;56.66;102226.03;5039272;28;45523;-66
2021/09/01 02:13:42;;;;;;;;;19.75;19.75;;;;;20.05;56.65;102224.19;5039191;28;45489;-66
2021/09/01 02:16:07;;;;;;;;;19.75;19.00;;;;;20.03;56.87;102222.50;5038946;28;46427;-66
2021/09/01 02:18:33;;;;;;;;;19.00;18.00;;;;;20.02;57.07;102229.75;5039083;28;45329;-67
2021/09/01 02:20:58;;;;;;;;;26.50;23.75;;;;;19.98;56.91;102225.47;5039339;28;45288;-66
2021/09/01 02:23:23;;;;;;;;;23.25;22.50;;;;;19.91;57.06;102229.41;5038353;28;45367;-66
2021/09/01 02:25:49;;;;;;;;;22.75;20.50;;;;;19.84;56.97;102228.81;5038895;28;45373;-65
2021/09/01 02:28:14;;;;;;;;;23.00;18.50;;;;;19.86;56.89;102236.88;5038998;28;45306;-65
2021/09/01 02:30:39;;;;;;;;;23.50;20.50;;;;;19.82;57.20;102225.31;5038929;28;45308;-66
2021/09/01 02:33:05;;;;;;;;;23.00;17.50;;;;;19.83;57.20;102235.22;5039188;28;45245;-66
2021/09/01 02:35:30;;;;;;;;;26.50;23.50;;;;;19.80;57.16;102229.94;5038913;28;45441;-66
2021/09/01 02:37:56;;;;;;;;;19.25;17.25;;;;;19.81;57.56;102234.38;5038724;28;45216;-66
2021/09/01 02:40:22;;;;;;;;;23.50;21.00;;;;;19.75;57.35;102226.56;5025381;28;45501;-66
2021/09/01 02:42:48;;;;;;;;;23.00;23.00;;;;;19.79;57.15;102223.59;5042059;28;45460;-66
2021/09/01 02:45:16;;;;;;;;;24.50;22.00;;;;;19.77;57.36;102227.34;5028736;28;45997;-66
2021/09/01 02:47:41;;;;;;;;;19.25;19.25;;;;;19.69;57.26;102233.09;5042266;28;45395;-66
2021/09/01 02:50:07;;;;;;;;;24.50;20.50;;;;;19.67;57.42;102231.44;5042384;28;45345;-66
2021/09/01 02:52:33;;;;;;;;;26.75;24.50;;;;;19.63;57.56;102226.16;5041323;28;45468;-65
2021/09/01 02:54:58;;;;;;;;;22.25;19.25;;;;;19.65;57.55;102236.91;5042059;28;46286;-66
2021/09/01 02:57:23;;;;;;;;;26.75;22.00;;;;;19.62;57.45;102235.22;5042078;28;45384;-65
2021/09/01 02:59:49;;;;;;;;;24.00;22.25;;;;;19.59;57.75;102240.78;5041846;28;45288;-66
2021/09/01 03:02:14;;;;;;;;;24.25;22.25;;;;;19.56;57.52;102235.53;5042053;28;45447;-65
2021/09/01 03:04:39;;;;;;;;;22.75;19.75;;;;;19.60;57.66;102242.53;5028396;28;45403;-66
2021/09/01 03:07:05;;;;;;;;;25.25;25.25;;;;;19.56;57.81;102242.75;5041776;28;45274;-65
2021/09/01 03:09:30;;;;;;;;;27.50;22.00;;;;;19.56;57.85;102240.03;5041798;28;45321;-66
2021/09/01 03:11:55;;;;;;;;;22.50;20.75;;;;;19.55;57.86;102244.59;5041955;28;45377;-66
2021/09/01 03:14:21;;;;;;;;;25.75;24.25;;;;;19.43;58.02;102218.09;5041326;28;46109;-66
2021/09/01 03:16:46;;;;;;;;;24.75;21.75;;;;;19.54;57.92;102239.25;5041868;28;45228;-65
2021/09/01 03:19:11;;;;;;;;;23.25;21.75;;;;;19.55;57.66;102238.28;5041761;28;45200;-66
2021/09/01 03:21:37;;;;;;;;;26.75;24.25;;;;;19.53;57.98;102235.66;5040963;28;45274;-65
2021/09/01 03:24:02;;;;;;;;;22.75;21.25;;;;;19.42;57.90;102228.00;5041540;28;46138;-66
2021/09/01 03:26:31;;;;;;;;;18.75;18.75;;;;;19.42;58.04;102219.88;5041440;28;45320;-66
2021/09/01 03:28:56;;;;;;;;;25.50;24.25;;;;;19.49;58.04;102234.03;5041362;28;45580;-65
2021/09/01 03:31:21;;;;;;;;;26.50;23.50;;;;;19.50;58.02;102237.63;5041493;28;45305;-65
2021/09/01 03:33:46;;;;;;;;;25.25;22.00;;;;;19.50;57.98;102226.81;5041356;28;45283;-66
2021/09/01 03:36:12;;;;;;;;;22.50;22.50;;;;;19.48;58.08;102234.09;5041283;28;45551;-66
2021/09/01 03:38:37;;;;;;;;;25.50;23.75;;;;;19.47;57.81;102227.81;5041216;28;45429;-65
2021/09/01 03:41:02;;;;;;;;;23.75;22.75;;;;;19.47;57.93;102226.94;5041079;28;49301;-66
2021/09/01 03:43:28;;;;;;;;;27.25;25.50;;;;;19.41;57.78;102225.38;5041074;28;45400;-65
2021/09/01 03:45:55;;;;;;;;;24.00;22.25;;;;;19.36;57.96;102213.88;5041164;28;45352;-66
2021/09/01 03:48:21;;;;;;;;;23.50;21.00;;;;;19.42;58.23;102233.44;5040506;28;45189;-66
2021/09/01 03:50:46;;;;;;;;;24.00;24.00;;;;;19.39;58.15;102236.28;5041168;28;45521;-66
2021/09/01 03:53:13;;;;;;;;;26.50;24.75;;;;;19.39;57.95;102238.97;5039448;28;50210;-66
2021/09/01 03:55:38;;;;;;;;;25.50;22.75;;;;;19.35;57.99;102239.22;5041084;28;45405;-66
2021/09/01 03:58:04;;;;;;;;;25.75;23.00;;;;;19.27;58.13;102227.84;5041022;28;45316;-66
2021/09/01 04:00:29;;;;;;;;;21.00;19.00;;;;;19.27;58.47;102230.56;5040977;28;45226;-65
2021/09/01 04:02:55;;;;;;;;;31.75;27.25;;;;;19.25;58.27;102227.91;5036937;28;46039;-66
2021/09/01 04:05:20;;;;;;;;;24.00;22.75;;;;;19.24;58.04;102223.44;5031458;28;45403;-66
2021/09/01 04:07:45;;;;;;;;;22.25;19.50;;;;;19.24;58.43;102234.28;5040675;28;45314;-66
2021/09/01 04:10:11;;;;;;;;;24.50;23.75;;;;;19.13;58.29;102223.03;5040640;28;45482;-66
2021/09/01 04:12:36;;;;;;;;;24.75;22.75;;;;;19.15;58.51;102232.88;5040636;28;45461;-66
2021/09/01 04:15:02;;;;;;;;;27.00;25.75;;;;;19.06;58.26;102214.31;5040635;28;45320;-66
2021/09/01 04:17:30;;;;;;;;;24.75;23.25;;;;;19.06;58.78;102220.63;5040628;28;45326;-66
2021/09/01 04:19:56;;;;;;;;;28.00;25.00;;;;;19.05;58.80;102218.88;5038502;28;45501;-66
2021/09/01 04:22:21;;;;;;;;;26.00;24.50;;;;;19.10;58.53;102236.75;5039690;28;46321;-65
2021/09/01 04:24:46;;;;;;;;;23.75;22.75;;;;;19.02;58.24;102220.81;5040353;28;45450;-65
2021/09/01 04:27:12;;;;;;;;;21.25;20.25;;;;;19.04;58.49;102224.34;5039891;28;45225;-65
2021/09/01 04:29:37;;;;;;;;;26.50;26.00;;;;;19.04;58.76;102233.34;5050875;28;45477;-65
2021/09/01 04:32:03;;;;;;;;;23.25;22.00;;;;;18.99;58.64;102220.97;5040139;28;46121;-66
2021/09/01 04:34:28;;;;;;;;;28.50;24.75;;;;;18.92;58.81;102212.22;5040860;28;45169;-66
2021/09/01 04:36:53;;;;;;;;;19.75;18.25;;;;;19.02;58.47;102245.19;5040147;28;45489;-66
2021/09/01 04:39:19;;;;;;;;;22.25;19.25;;;;;19.04;58.75;102237.88;5040450;28;45216;-64
2021/09/01 04:41:44;;;;;;;;;24.50;23.00;;;;;19.05;58.69;102243.22;5039836;28;45275;-64
2021/09/01 04:44:09;;;;;;;;;22.25;21.75;;;;;19.00;58.57;102237.13;5040242;28;45372;-64
2021/09/01 04:46:34;;;;;;;;;26.75;25.25;;;;;19.04;58.74;102241.47;5040252;28;45348;-64
2021/09/01 04:49:00;;;;;;;;;28.75;25.50;;;;;19.00;58.63;102238.97;5030933;28;45376;-64
2021/09/01 04:51:25;;;;;;;;;21.50;19.25;;;;;19.06;58.87;102253.09;5037880;28;49455;-64
2021/09/01 04:53:50;;;;;;;;;23.75;22.25;;;;;18.95;58.81;102244.56;5040275;28;45215;-64
2021/09/01 04:56:16;;;;;;;;;21.75;20.25;;;;;19.04;58.34;102256.81;5039994;28;45226;-64
2021/09/01 04:58:41;;;;;;;;;27.75;26.50;;;;;19.02;58.85;102250.59;5040090;28;45407;-64
2021/09/01 05:01:06;;;;;;;;;24.50;23.00;;;;;19.02;58.59;102261.41;5039974;28;46130;-64
2021/09/01 05:03:32;;;;;;;;;25.50;24.25;;;;;19.01;58.76;102256.94;5030595;28;45311;-64
2021/09/01 05:05:57;;;;;;;;;23.25;21.50;;;;;18.99;58.81;102248.03;5046787;28;45449;-64
2021/09/01 05:08:22;;;;;;;;;22.25;20.75;;;;;18.97;58.74;102249.91;5039963;28;45448;-64
2021/09/01 05:10:48;;;;;;;;;24.00;21.50;;;;;18.84;58.79;102223.41;5039819;28;45236;-64
2021/09/01 05:13:13;;;;;;;;;25.75;23.50;;;;;18.93;58.87;102245.56;5040057;28;45352;-64
2021/09/01 05:15:40;;;;;;;;;24.75;23.25;;;;;18.89;58.72;102244.84;5039676;28;45316;-64
2021/09/01 05:18:05;;;;;;;;;26.25;21.25;;;;;18.86;59.12;102245.88;5036779;28;45338;-64
2021/09/01 05:20:37;;;;;;;;;24.50;23.75;;;;;18.85;59.02;102254.91;5035655;28;46194;-64
2021/09/01 05:23:06;;;;;;;;;27.00;24.25;;;;;18.83;59.21;102253.25;5039677;28;45477;-64
2021/09/01 05:25:52;;;;;;;;;29.00;29.00;;;;;18.78;58.79;102256.09;5053218;28;45344;-64
2021/09/01 05:28:23;;;;;;;;;26.00;25.00;;;;;18.74;59.26;102259.00;5039791;28;45288;-64
2021/09/01 05:30:49;;;;;;;;;22.75;22.00;;;;;18.67;58.88;102247.56;5026752;28;45566;-64
2021/09/01 05:33:17;;;;;;;;;25.00;23.50;;;;;18.69;59.07;102260.09;5040150;28;45354;-64
2021/09/01 05:35:43;;;;;;;;;26.50;24.25;;;;;18.68;59.33;102262.84;5052270;28;45282;-64
2021/09/01 05:38:10;;;;;;;;;24.50;24.00;;;;;18.69;59.17;102270.00;5039381;28;45407;-64
2021/09/01 05:40:38;;;;;;;;;30.50;29.00;;;;;18.66;59.11;102273.72;5032033;28;47272;-64
2021/09/01 05:43:04;;;;;;;;;21.75;20.75;;;;;18.65;59.07;102277.38;5040821;28;45415;-64
2021/09/01 05:45:30;;;;;;;;;26.00;22.25;;;;;18.62;59.20;102280.19;5051266;28;45268;-64
2021/09/01 05:47:56;;;;;;;;;23.50;23.00;;;;;18.62;59.27;102279.31;5038778;28;45409;-73
2021/09/01 05:50:24;;;;;;;;;26.75;24.25;;;;;18.64;59.52;102285.53;5049423;28;48170;-69
2021/09/01 05:52:50;;;;;;;;;21.50;19.50;;;;;18.65;59.23;102287.31;5038267;28;45328;-70
2021/09/01 05:55:16;;;;;;;;;23.75;20.75;;;;;18.64;59.54;102293.66;5032363;28;45384;-70
2021/09/01 05:57:45;;;;;;;;;22.75;22.50;;;;;18.62;59.14;102280.19;5039441;28;45370;-73
2021/09/01 06:00:13;;;;;;;;;23.25;19.25;;;;;18.59;59.65;102288.44;5048816;28;45403;-74
2021/09/01 06:03:03;;;;;;;;;31.25;28.25;;;;;18.61;59.33;102288.38;5040666;28;45718;-72
2021/09/01 06:05:29;;;;;;;;;27.00;23.75;;;;;18.56;59.31;102284.97;5031090;28;45509;-72
2021/09/01 06:07:56;;;;;;;;;29.50;23.25;;;;;18.54;59.62;102281.47;5038923;28;45370;-71
2021/09/01 06:10:29;;;;;;;;;20.25;20.25;;;;;18.57;59.23;102293.03;5039097;28;46377;-70
2021/09/01 06:12:57;;;;;;;;;27.25;23.25;;;;;18.57;59.52;102289.47;5039163;28;45636;-70
2021/09/01 06:15:23;;;;;;;;;26.75;25.25;;;;;18.55;59.50;102277.84;5038693;28;45348;-71
2021/09/01 06:17:49;;;;;;;;;24.00;23.50;;;;;18.43;59.46;102255.75;5041545;28;45511;-70
2021/09/01 06:20:15;;;;;;;;;23.00;22.00;;;;;18.53;59.58;102280.59;5041924;28;46296;-71
2021/09/01 06:22:41;;;;;;;;;27.25;21.25;;;;;18.54;59.55;102276.06;5045885;28;45379;-71
2021/09/01 06:25:07;;;;;;;;;23.75;23.25;;;;;18.56;59.33;102276.88;5052131;28;45375;-72
2021/09/01 06:27:33;;;;;;;;;26.25;26.25;;;;;18.56;59.64;102275.06;5043195;28;45631;-71
2021/09/01 06:29:58;;;;;;;;;23.50;23.50;;;;;18.49;59.54;102265.44;5041379;28;46230;-71
2021/09/01 06:32:24;;;;;;;;;28.50;27.75;;;;;18.48;59.88;102259.16;5042514;28;45439;-71
2021/09/01 06:34:49;;;;;;;;;26.00;25.75;;;;;18.52;59.66;102274.28;5023572;28;45360;-72
2021/09/01 06:37:15;;;;;;;;;29.00;27.50;;;;;18.46;59.51;102261.03;5040829;28;45427;-72
2021/09/01 06:39:41;;;;;;;;;25.00;23.75;;;;;18.43;60.01;102253.06;5029213;28;47444;-71
2021/09/01 06:42:07;;;;;;;;;32.00;28.00;;;;;18.47;59.75;102267.31;5041011;28;45391;-71
2021/09/01 06:44:33;;;;;;;;;27.00;25.25;;;;;18.50;59.70;102267.19;5045752;28;45141;-71
2021/09/01 06:46:58;;;;;;;;;28.00;26.25;;;;;18.50;59.77;102254.56;5052195;28;45332;-71
2021/09/01 06:49:24;;;;;;;;;32.75;29.00;;;;;18.51;59.73;102271.69;5041749;28;46670;-73
2021/09/01 06:51:49;;;;;;;;;28.00;26.75;;;;;18.50;59.88;102267.19;5040987;28;45520;-72
2021/09/01 06:54:15;;;;;;;;;24.00;24.00;;;;;18.45;59.88;102251.16;5042408;28;45355;-72
2021/09/01 06:56:40;;;;;;;;;29.25;26.50;;;;;18.44;60.10;102251.22;5041631;28;45618;-71
2021/09/01 06:59:05;;;;;;;;;29.25;26.25;;;;;18.56;59.91;102260.66;5034279;28;47452;-71
2021/09/01 07:01:31;;;;;;;;;28.50;25.50;;;;;18.58;60.18;102272.31;5039896;28;45431;-72
2021/09/01 07:03:56;;;;;;;;;25.75;22.75;;;;;18.58;59.73;102275.00;5040433;28;45484;-65
2021/09/01 07:06:22;;;;;;;;;26.75;23.00;;;;;18.57;60.19;102274.09;5040902;28;45580;-65
2021/09/01 07:08:48;;;;;;;;;29.50;22.50;;;;;18.54;60.15;102262.53;5037601;28;45462;-65
2021/09/01 07:11:13;;;;;;;;;25.50;23.25;;;;;18.57;60.14;102267.81;5040712;28;45339;-65
2021/09/01 07:13:38;;;;;;;;;28.75;24.00;;;;;18.41;59.86;102233.31;5040506;28;45347;-65
2021/09/01 07:16:05;;;;;;;;;28.75;27.00;;;;;18.52;60.02;102257.19;5040824;28;45521;-66
2021/09/01 07:18:30;;;;;;;;;26.25;25.00;;;;;18.56;59.87;102258.84;5040349;28;45378;-68
2021/09/01 07:20:55;;;;;;;;;26.75;24.50;;;;;18.60;60.27;102262.28;5046691;28;45349;-68
2021/09/01 07:23:21;;;;;;;;;27.75;26.00;;;;;18.60;60.18;102265.00;5047716;28;45372;-65
2021/09/01 07:25:46;;;;;;;;;24.25;21.75;;;;;18.61;59.87;102258.63;5040872;28;45667;-65
2021/09/01 07:28:12;;;;;;;;;25.75;22.25;;;;;18.63;59.97;102262.16;5038596;28;46030;-65
2021/09/01 07:30:37;;;;;;;;;28.00;25.00;;;;;18.58;59.61;102247.97;5027000;28;45388;-65
2021/09/01 07:33:02;;;;;;;;;29.00;26.25;;;;;18.57;60.08;102243.50;5040453;28;45384;-65
2021/09/01 07:35:28;;;;;;;;;26.75;23.75;;;;;18.59;59.66;102247.88;5039961;28;45447;-65
2021/09/01 07:37:53;;;;;;;;;22.75;21.25;;;;;18.63;60.07;102254.91;5053139;28;46303;-65
2021/09/01 07:40:21;;;;;;;;;23.75;22.25;;;;;18.63;59.96;102252.22;5040106;28;45330;-65
2021/09/01 07:42:47;;;;;;;;;31.00;27.00;;;;;18.61;59.84;102253.22;5053663;28;45420;-65
2021/09/01 07:45:15;;;;;;;;;26.25;22.50;;;;;18.61;60.07;102255.91;5039592;28;45275;-65
2021/09/01 07:47:51;;;;;;;;;35.25;27.00;;;;;18.58;59.78;102259.66;5040598;28;47076;-65
2021/09/01 07:50:21;;;;;;;;;27.75;25.25;;;;;18.61;60.15;102264.03;5040304;28;45399;-65
2021/09/01 07:52:47;;;;;;;;;25.75;24.00;;;;;18.59;59.77;102261.38;5039895;28;45641;-65
2021/09/01 07:55:13;;;;;;;;;27.00;25.50;;;;;18.55;59.84;102251.66;5040685;28;45462;-65
2021/09/01 07:57:39;;;;;;;;;22.75;21.75;;;;;18.57;59.92;102260.59;5038576;28;46479;-64
2021/09/01 08:00:09;;;;;;;;;28.25;24.75;;;;;18.63;60.14;102262.16;5039685;28;45441;-66
2021/09/01 08:02:35;;;;;;;;;30.50;30.50;;;;;18.60;59.74;102255.03;5038748;28;45376;-66
2021/09/01 08:05:00;;;;;;;;;26.75;24.75;;;;;18.65;60.06;102261.13;5040344;28;45375;-65
2021/09/01 08:07:25;;;;;;;;;27.00;24.25;;;;;18.66;60.18;102248.50;5039856;28;46140;-67
2021/09/01 08:09:52;;;;;;;;;31.25;28.75;;;;;18.65;60.07;102242.22;5038923;28;45716;-66
2021/09/01 08:12:17;;;;;;;;;31.00;28.50;;;;;18.76;60.49;102257.09;5040022;28;45654;-66
2021/09/01 08:14:43;;;;;;;;;28.25;27.50;;;;;18.79;60.37;102254.25;5039925;28;45559;-66
2021/09/01 08:17:08;;;;;;;;;31.75;28.25;;;;;18.83;59.82;102269.47;5030143;28;47266;-64
2021/09/01 08:19:33;;;;;;;;;37.25;30.25;;;;;18.79;59.74;102251.56;5039818;28;45466;-65
2021/09/01 08:21:59;;;;;;;;;30.50;30.00;;;;;18.82;59.58;102262.25;5020141;28;45490;-65
2021/09/01 08:24:24;;;;;;;;;34.25;32.75;;;;;18.78;59.59;102263.34;5039858;28;45364;-65
2021/09/01 08:26:50;;;;;;;;;33.50;29.50;;;;;18.66;60.13;102241.28;5039553;28;46884;-65
2021/09/01 08:29:15;;;;;;;;;33.00;30.50;;;;;18.82;60.02;102256.84;5039143;28;45455;-65
2021/09/01 08:31:40;;;;;;;;;31.25;28.50;;;;;18.85;60.04;102264.88;5037334;28;45425;-65
2021/09/01 08:34:06;;;;;;;;;31.75;26.50;;;;;18.85;59.55;102267.56;5039443;28;45785;-65
2021/09/01 08:36:31;;;;;;;;;32.75;27.00;;;;;18.87;59.58;102265.66;5040853;28;45406;-65
2021/09/01 08:38:57;;;;;;;;;33.00;29.00;;;;;18.86;59.70;102262.09;5050254;28;45368;-65
2021/09/01 08:41:22;;;;;;;;;32.25;30.50;;;;;18.90;59.77;102261.97;5039305;28;45351;-65
2021/09/01 08:43:48;;;;;;;;;34.25;32.00;;;;;18.90;59.65;102264.69;5038981;28;45906;-65
2021/09/01 08:46:14;;;;;;;;;31.50;28.75;;;;;18.92;59.82;102266.34;5037587;28;45660;-65
2021/09/01 08:48:40;;;;;;;;;36.00;32.00;;;;;18.90;60.05;102253.84;5030942;28;45528;-67
2021/09/01 08:51:07;;;;;;;;;31.00;27.50;;;;;18.88;59.74;102251.22;5039024;28;45500;-65
2021/09/01 08:53:34;;;;;;;;;39.75;33.25;;;;;19.01;59.88;102275.88;5039020;28;45416;-66
2021/09/01 08:55:59;;;;;;;;;33.50;30.50;;;;;19.03;59.44;102265.91;5045481;28;46106;-66
2021/09/01 08:58:25;;;;;;;;;33.00;31.25;;;;;19.04;59.86;102264.94;5038856;28;45351;-68
2021/09/01 09:00:50;;;;;;;;;35.50;31.00;;;;;18.97;59.57;102252.63;5039435;28;45722;-68
2021/09/01 09:03:15;;;;;;;;;31.00;28.25;;;;;19.04;59.74;102254.09;5031867;28;45368;-66
2021/09/01 09:05:42;;;;;;;;;29.00;26.75;;;;;19.14;59.79;102268.13;5032613;28;46620;-67
2021/09/01 09:08:14;;;;;;;;;39.25;33.25;;;;;19.15;59.87;102262.63;5038986;28;45408;-67
2021/09/01 09:10:41;;;;;;;;;30.00;28.25;;;;;19.23;59.77;102268.59;5039168;28;45425;-68
2021/09/01 09:13:12;;;;;;;;;32.50;30.50;;;;;19.17;59.41;102243.63;5038656;28;45449;-68
2021/09/01 09:15:39;;;;;;;;;38.50;32.00;;;;;19.32;59.28;102258.31;5038671;28;46097;-68
2021/09/01 09:18:25;;;;;;;;;31.00;31.00;;;;;19.37;59.41;102259.84;5029331;28;45376;-68
2021/09/01 09:21:06;;;;;;;;;37.00;32.50;;;;;19.42;59.06;102252.38;5037259;28;45327;-68
2021/09/01 09:23:32;;;;;;;;;35.25;32.25;;;;;19.46;59.30;102261.25;5031286;28;45742;-68
2021/09/01 09:25:57;;;;;;;;;32.00;30.75;;;;;19.45;59.01;102251.38;5038485;28;51495;-66
2021/09/01 09:28:22;;;;;;;;;30.25;29.00;;;;;19.45;59.10;102254.09;5038563;28;45474;-66
2021/09/01 09:30:48;;;;;;;;;36.25;33.00;;;;;19.53;59.10;102257.31;5038724;28;45509;-67
2021/09/01 09:33:19;;;;;;;;;31.75;28.00;;;;;19.52;59.18;102260.97;5038282;28;45530;-69
2021/09/01 09:36:02;;;;;;;;;37.00;28.00;;;;;19.61;58.55;102262.38;5038817;28;45412;-68
2021/09/01 09:38:34;;;;;;;;;33.75;29.50;;;;;19.62;58.36;102254.19;5038262;28;45810;-68
2021/09/01 09:41:02;;;;;;;;;31.50;29.25;;;;;19.63;58.18;102257.78;5039105;28;45514;-68
2021/09/01 09:43:28;;;;;;;;;31.50;26.75;;;;;19.60;58.17;102250.66;5038001;28;45536;-68
2021/09/01 09:46:00;;;;;;;;;29.50;27.75;;;;;19.62;58.23;102254.19;5038517;28;45655;-67
2021/09/01 09:48:29;;;;;;;;;29.75;26.75;;;;;19.61;58.54;102244.31;5025662;28;45282;-67
2021/09/01 09:50:55;;;;;;;;;28.75;24.25;;;;;19.60;58.75;102244.38;5041503;28;45794;-67
2021/09/01 09:53:35;;;;;;;;;31.75;28.50;;;;;19.67;58.45;102248.56;5048398;28;45522;-67
2021/09/01 09:56:19;;;;;;;;;28.75;26.00;;;;;19.70;58.37;102239.41;5035687;28;45384;-67
2021/09/01 09:58:57;;;;;;;;;31.00;31.00;;;;;19.80;58.53;102249.75;5042266;28;45250;-68
2021/09/01 10:01:25;;;;;;;;;32.25;27.25;;;;;19.85;58.09;102249.56;5042401;28;45485;-67
2021/09/01 10:03:52;;;;;;;;;31.75;29.50;;;;;19.84;58.17;102242.38;5030672;28;45439;-67
2021/09/01 10:06:19;;;;;;;;;33.00;31.50;;;;;19.93;57.94;102258.19;5040583;28;46339;-67
2021/09/01 10:08:47;;;;;;;;;34.75;31.50;;;;;19.86;57.73;102237.75;5041833;28;45580;-67
2021/09/01 10:11:15;;;;;;;;;32.25;28.00;;;;;19.92;58.13;102237.47;5042363;28;45522;-67
2021/09/01 10:13:42;;;;;;;;;31.25;29.50;;;;;20.01;57.60;102233.41;5042576;28;45468;-67
2021/09/01 10:16:10;;;;;;;;;28.50;25.50;;;;;20.08;57.20;102244.84;5041821;28;45387;-67
2021/09/01 10:18:39;;;;;;;;;26.25;24.75;;;;;20.09;57.38;102236.63;5037615;28;45643;-68
2021/09/01 10:21:07;;;;;;;;;30.50;26.50;;;;;20.13;57.00;102243.69;5029411;28;45649;-69
2021/09/01 10:23:41;;;;;;;;;29.75;28.75;;;;;20.13;56.86;102238.25;5047359;28;45540;-67
2021/09/01 10:26:31;;;;;;;;;28.00;25.75;;;;;20.16;56.98;102246.25;5052513;28;46217;-67
2021/09/01 10:28:59;;;;;;;;;27.75;26.50;;;;;20.18;56.79;102235.34;5047236;28;45395;-73
2021/09/01 10:31:34;;;;;;;;;28.00;25.75;;;;;20.22;56.97;102236.06;5050027;28;45228;-68
2021/09/01 10:34:20;;;;;;;;;27.50;24.25;;;;;20.26;56.92;102233.09;5029118;28;45276;-68
2021/09/01 10:36:48;;;;;;;;;34.25;27.00;;;;;20.20;56.71;102210.81;5041264;28;46981;-67
2021/09/01 10:39:17;;;;;;;;;27.50;25.50;;;;;20.33;56.63;102222.81;5041943;28;45670;-67
2021/09/01 10:41:42;;;;;;;;;26.25;24.25;;;;;20.35;56.95;102213.66;5042083;28;45348;-67
2021/09/01 10:44:11;;;;;;;;;25.25;25.25;;;;;20.39;56.72;102203.53;5042027;28;45399;-67
2021/09/01 10:46:48;;;;;;;;;27.00;24.75;;;;;20.47;56.82;102208.56;5039695;28;45587;-67
2021/09/01 10:49:14;;;;;;;;;26.50;26.00;;;;;20.50;57.01;102203.00;5034962;28;45360;-67
2021/09/01 10:51:48;;;;;;;;;28.75;25.50;;;;;20.54;56.08;102207.31;5041515;28;45423;-67
2021/09/01 10:54:33;;;;;;;;;24.75;22.25;;;;;20.57;56.55;102200.84;5041928;28;45386;-67
2021/09/01 10:57:04;;;;;;;;;27.50;25.75;;;;;20.57;56.44;102198.13;5050489;28;46144;-67
2021/09/01 10:59:35;;;;;;;;;23.50;21.75;;;;;20.64;56.04;102199.59;5041772;28;45339;-67
2021/09/01 11:02:10;;;;;;;;;23.50;19.50;;;;;20.69;56.25;102195.69;5031025;28;45574;-67
2021/09/01 11:04:44;;;;;;;;;24.00;20.75;;;;;20.75;56.01;102201.75;5032511;28;45824;-66
2021/09/01 11:07:10;;;;;;;;;26.50;24.75;;;;;20.69;55.86;102178.53;5037325;28;45631;-66
2021/09/01 11:09:35;;;;;;;;;21.50;20.00;;;;;20.78;55.78;102185.31;5031732;28;45541;-67